Time;durP1;ratioP1;P1;durP2;ratioP2;P2;SDS_P1;SDS_P2;PMS_P1;PMS_P2;Temp;Humidity;BMP_temperature;BMP_pressure;BME280_temperature;BME280_humidity;BME280_pressure;Samples;Min_cycle;Max_cycle;Signal;HPM_P1;HPM_P2
2023/04/17 00:01:50;;;;;;;;;;;8.60;69.00;;;;;;4120428;28;19953;-88
2023/04/17 00:04:11;;;;;;;;;;;8.60;69.00;;;;;;4112738;28;19917;-88
2023/04/17 00:06:32;;;;;;;;;;;8.70;69.10;;;;;;4108438;28;19961;-90
2023/04/17 00:08:53;;;;;;;;;;;8.70;69.20;;;;;;4127526;28;20008;-87
2023/04/17 00:11:14;;;;;;;;;;;8.60;69.10;;;;;;4109960;28;19918;-88
2023/04/17 00:13:35;;;;;;;;;;;8.60;69.10;;;;;;4133877;28;19941;-89
2023/04/17 00:15:56;;;;;;;;;;;8.60;69.10;;;;;;4110912;28;19949;-88
2023/04/17 00:18:19;;;;;;;;;;;8.50;69.20;;;;;;4108154;28;20008;-88
2023/04/17 00:20:43;;;;;;;;;;;8.50;69.20;;;;;;4108217;28;20004;-88
2023/04/17 00:23:04;;;;;;;;;;;8.50;69.40;;;;;;4108700;28;19918;-88
2023/04/17 00:25:24;;;;;;;;;;;8.50;69.60;;;;;;4124331;28;19913;-88
2023/04/17 00:27:41;;;;;;;;;;;8.40;69.60;;;;;;4090377;28;19958;-88
2023/04/17 00:30:01;;;;;;;;;;;8.40;69.60;;;;;;4106004;28;19925;-88
2023/04/17 00:32:30;;;;;;;;;;;8.50;69.80;;;;;;4069941;29;20469;-87
2023/04/17 00:34:43;;;;;;;;;;;8.30;69.80;;;;;;4092505;28;20463;-87
2023/04/17 00:37:28;;;;;;;;;;;8.50;70.10;;;;;;4090481;28;19910;-89
2023/04/17 00:39:49;;;;;;;;;;;8.40;70.00;;;;;;4090860;28;19927;-88
2023/04/17 00:42:10;;;;;;;;;;;8.50;70.10;;;;;;4092887;28;19942;-87
2023/04/17 00:44:30;;;;;;;;;;;8.40;70.10;;;;;;4090025;28;19914;-89
2023/04/17 00:46:51;;;;;;;;;;;8.50;70.30;;;;;;4079515;28;19910;-88
2023/04/17 00:49:30;;;;;;;;;;;8.40;70.30;;;;;;4074947;28;19910;-87
2023/04/17 00:52:05;;;;;;;;;;;8.50;70.40;;;;;;4098896;28;19910;-89
2023/04/17 00:54:07;;;;;;;;;;;8.30;70.40;;;;;;4107374;28;20373;-87
2023/04/17 00:56:08;;;;;;;;;;;8.40;70.40;;;;;;4115956;28;19910;-88
2023/04/17 00:58:10;;;;;;;;;;;8.40;70.40;;;;;;4127722;28;19992;-88
2023/04/17 01:00:31;;;;;;;;;;;8.40;70.50;;;;;;4122710;28;20313;-87
2023/04/17 01:02:35;;;;;;;;;;;8.30;70.50;;;;;;4120163;28;19909;-88
2023/04/17 01:04:43;;;;;;;;;;;8.50;70.60;;;;;;4094702;29;20276;-88
2023/04/17 01:06:59;;;;;;;;;;;8.40;70.60;;;;;;4114951;28;19926;-88
2023/04/17 01:09:19;;;;;;;;;;;8.40;70.60;;;;;;4112769;28;19964;-87
2023/04/17 01:11:31;;;;;;;;;;;8.40;70.60;;;;;;4111173;28;19981;-87
2023/04/17 01:13:51;;;;;;;;;;;8.30;70.50;;;;;;4119547;28;20008;-88
2023/04/17 01:16:12;;;;;;;;;;;8.40;70.50;;;;;;4107979;28;19918;-87
2023/04/17 01:18:33;;;;;;;;;;;8.30;70.20;;;;;;4111016;28;19925;-89
2023/04/17 01:20:53;;;;;;;;;;;8.30;70.30;;;;;;4111952;28;19914;-87
2023/04/17 01:23:19;;;;;;;;;;;8.40;70.40;;;;;;4110957;28;19914;-87
2023/04/17 01:26:05;;;;;;;;;;;8.30;70.30;;;;;;4124329;28;19914;-89
2023/04/17 01:28:31;;;;;;;;;;;8.30;70.40;;;;;;4114230;28;19957;-87
2023/04/17 01:31:00;;;;;;;;;;;8.30;70.30;;;;;;4111415;28;19937;-89
2023/04/17 01:33:21;;;;;;;;;;;8.30;70.10;;;;;;4107808;28;19910;-88
2023/04/17 01:35:41;;;;;;;;;;;8.30;70.20;;;;;;4113055;28;19913;-87
2023/04/17 01:38:05;;;;;;;;;;;8.30;70.30;;;;;;4132830;28;19949;-90
2023/04/17 01:40:08;;;;;;;;;;;8.40;70.50;;;;;;4130482;28;19962;-91
2023/04/17 01:42:12;;;;;;;;;;;8.30;70.40;;;;;;4143676;28;19928;-89
2023/04/17 01:44:13;;;;;;;;;;;8.30;70.40;;;;;;4100781;28;20170;-88
2023/04/17 01:46:20;;;;;;;;;;;8.30;70.40;;;;;;4105901;28;20369;-88
2023/04/17 01:49:07;;;;;;;;;;;8.40;70.50;;;;;;4107177;28;19997;-88
2023/04/17 01:51:31;;;;;;;;;;;8.20;70.30;;;;;;4127640;28;19925;-89
2023/04/17 01:53:35;;;;;;;;;;;8.20;70.60;;;;;;4090361;28;19911;-88
2023/04/17 01:55:56;;;;;;;;;;;8.30;70.50;;;;;;4110626;28;19910;-87
2023/04/17 01:58:16;;;;;;;;;;;8.30;70.60;;;;;;4112019;28;19914;-89
2023/04/17 02:00:40;;;;;;;;;;;8.20;70.70;;;;;;4112890;28;19978;-88
2023/04/17 02:03:01;;;;;;;;;;;8.20;70.60;;;;;;4113047;28;20048;-89
2023/04/17 02:05:21;;;;;;;;;;;8.20;70.60;;;;;;4114529;28;20486;-88
2023/04/17 02:07:31;;;;;;;;;;;8.30;70.40;;;;;;4105170;28;19968;-88
2023/04/17 02:09:51;;;;;;;;;;;8.30;70.20;;;;;;4109919;28;19938;-88
2023/04/17 02:12:12;;;;;;;;;;;8.20;70.10;;;;;;4109726;28;19918;-88
2023/04/17 02:14:33;;;;;;;;;;;8.20;70.10;;;;;;4123969;28;19913;-88
2023/04/17 02:16:53;;;;;;;;;;;8.20;70.10;;;;;;4110725;28;19952;-88
2023/04/17 02:19:14;;;;;;;;;;;8.30;70.20;;;;;;4126369;28;20036;-87
2023/04/17 02:21:35;;;;;;;;;;;8.20;70.20;;;;;;4122571;28;19937;-88
2023/04/17 02:23:55;;;;;;;;;;;8.30;70.30;;;;;;4110856;28;19977;-89
2023/04/17 02:26:26;;;;;;;;;;;8.20;70.30;;;;;;4113911;28;19926;-88
2023/04/17 02:28:47;;;;;;;;;;;8.30;71.20;;;;;;4111969;28;19957;-90
2023/04/17 02:31:08;;;;;;;;;;;8.30;70.60;;;;;;4112278;28;20501;-88
2023/04/17 02:33:28;;;;;;;;;;;8.30;70.50;;;;;;4111216;28;20004;-89
2023/04/17 02:35:49;;;;;;;;;;;8.20;70.40;;;;;;4114568;28;19946;-88
2023/04/17 02:37:57;;;;;;;;;;;8.30;70.50;;;;;;4126147;28;19910;-88
2023/04/17 02:39:58;;;;;;;;;;;8.40;70.50;;;;;;4094635;28;19914;-88
2023/04/17 02:42:00;;;;;;;;;;;8.30;70.40;;;;;;4124057;28;19917;-90
2023/04/17 02:44:01;;;;;;;;;;;8.30;70.20;;;;;;4108863;28;20438;-89
2023/04/17 02:46:02;;;;;;;;;;;8.30;70.20;;;;;;4124570;28;19914;-87
2023/04/17 02:48:03;;;;;;;;;;;8.30;70.10;;;;;;4112120;28;19967;-88
2023/04/17 02:50:04;;;;;;;;;;;8.20;70.00;;;;;;4109590;28;20484;-88
2023/04/17 02:52:05;;;;;;;;;;;8.20;70.00;;;;;;4126038;28;19973;-87
2023/04/17 02:54:07;;;;;;;;;;;8.30;69.90;;;;;;4097240;28;19938;-88
2023/04/17 02:56:11;;;;;;;;;;;8.20;69.80;;;;;;4111924;28;19910;-88
2023/04/17 02:58:12;;;;;;;;;;;8.20;69.70;;;;;;4111183;28;20284;-88
2023/04/17 03:00:43;;;;;;;;;;;8.10;69.80;;;;;;4107935;28;19941;-88
2023/04/17 03:03:04;;;;;;;;;;;8.20;70.00;;;;;;4107521;28;19925;-89
2023/04/17 03:05:28;;;;;;;;;;;8.20;70.20;;;;;;4109790;28;20243;-89
2023/04/17 03:07:50;;;;;;;;;;;8.10;70.40;;;;;;4124018;28;19914;-87
2023/04/17 03:10:17;;;;;;;;;;;8.20;70.60;;;;;;4091438;28;19936;-88
2023/04/17 03:12:39;;;;;;;;;;;8.10;70.80;;;;;;4107467;28;19910;-87
2023/04/17 03:15:01;;;;;;;;;;;8.10;70.90;;;;;;4109154;28;20008;-88
2023/04/17 03:17:27;;;;;;;;;;;8.10;70.90;;;;;;4108184;28;19913;-89
2023/04/17 03:20:06;;;;;;;;;;;8.10;70.90;;;;;;4121062;28;20635;-87
2023/04/17 03:22:37;;;;;;;;;;;8.00;70.70;;;;;;4113243;28;19914;-88
2023/04/17 03:24:57;;;;;;;;;;;8.00;70.50;;;;;;4123960;28;19967;-88
2023/04/17 03:27:23;;;;;;;;;;;8.20;70.60;;;;;;4107145;28;20021;-88
2023/04/17 03:29:40;;;;;;;;;;;8.10;70.50;;;;;;4121528;28;20364;-88
2023/04/17 03:34:04;;;;;;;;;;;8.20;70.60;;;;;;4122410;28;19990;-88
2023/04/17 03:36:11;;;;;;;;;;;8.20;70.60;;;;;;4089124;28;20004;-88
2023/04/17 03:38:35;;;;;;;;;;;8.00;70.40;;;;;;4110710;28;19937;-87
2023/04/17 03:40:50;;;;;;;;;;;8.10;70.50;;;;;;4109009;28;20019;-88
2023/04/17 03:42:54;;;;;;;;;;;8.10;70.40;;;;;;4093272;28;19922;-86
2023/04/17 03:45:40;;;;;;;;;;;8.20;70.60;;;;;;4117737;28;19916;-88
2023/04/17 03:48:12;;;;;;;;;;;8.10;70.40;;;;;;4120886;28;19918;-88
2023/04/17 03:50:32;;;;;;;;;;;8.00;70.30;;;;;;4122876;28;20012;-90
2023/04/17 03:52:53;;;;;;;;;;;8.20;70.40;;;;;;4123319;28;20379;-88
2023/04/17 03:55:14;;;;;;;;;;;8.20;70.30;;;;;;4108610;28;19950;-89
2023/04/17 03:57:38;;;;;;;;;;;8.20;70.20;;;;;;4103113;28;20266;-88
2023/04/17 04:00:05;;;;;;;;;;;8.20;70.10;;;;;;4106590;28;19960;-87
2023/04/17 04:02:26;;;;;;;;;;;8.00;70.00;;;;;;4107943;28;19919;-88
2023/04/17 04:04:48;;;;;;;;;;;8.10;70.10;;;;;;4109728;28;19913;-88
2023/04/17 04:07:09;;;;;;;;;;;8.20;70.20;;;;;;4121090;28;19913;-86
2023/04/17 04:09:47;;;;;;;;;;;8.10;70.20;;;;;;4121213;28;19914;-89
2023/04/17 04:12:27;;;;;;;;;;;;;;;;;;;;;
2023/04/17 04:14:48;;;;;;;;;;;8.00;70.00;;;;;;4117188;28;19924;-87
2023/04/17 04:17:09;;;;;;;;;;;8.10;70.30;;;;;;4122780;28;19914;-87
2023/04/17 04:19:29;;;;;;;;;;;8.00;70.30;;;;;;4111542;28;19949;-87
2023/04/17 04:24:52;;;;;;;;;;;8.00;70.30;;;;;;4128258;28;19914;-88
2023/04/17 04:27:04;;;;;;;;;;;8.00;70.20;;;;;;4112458;28;19982;-88
2023/04/17 04:29:04;;;;;;;;;;;8.00;70.20;;;;;;4113608;28;19989;-87
2023/04/17 04:31:05;;;;;;;;;;;8.00;70.30;;;;;;4111754;28;20020;-87
2023/04/17 04:33:07;;;;;;;;;;;8.00;70.10;;;;;;4124726;28;19921;-87
2023/04/17 04:35:08;;;;;;;;;;;8.00;70.20;;;;;;4096967;28;19914;-88
2023/04/17 04:37:15;;;;;;;;;;;7.90;69.90;;;;;;4108851;28;19910;-88
2023/04/17 04:39:40;;;;;;;;;;;8.10;69.80;;;;;;4121210;28;19956;-88
2023/04/17 04:45:10;;;;;;;;;;;7.90;69.70;;;;;;4099867;28;20324;-88
2023/04/17 04:47:30;;;;;;;;;;;8.00;70.10;;;;;;4128932;28;19918;-87
2023/04/17 04:49:51;;;;;;;;;;;8.00;70.20;;;;;;4123128;28;19940;-88
2023/04/17 04:52:22;;;;;;;;;;;8.00;71.20;;;;;;4116563;28;19944;-87
2023/04/17 04:54:43;;;;;;;;;;;7.90;70.20;;;;;;4112904;28;20372;-88
2023/04/17 04:56:55;;;;;;;;;;;8.00;70.40;;;;;;4093108;28;19965;-87
2023/04/17 04:59:01;;;;;;;;;;;8.00;70.40;;;;;;4122966;28;20312;-87
2023/04/17 05:01:02;;;;;;;;;;;8.00;70.60;;;;;;4114816;28;19941;-87
2023/04/17 05:03:03;;;;;;;;;;;8.10;70.70;;;;;;4095952;28;20441;-88
2023/04/17 05:05:24;;;;;;;;;;;8.00;70.70;;;;;;4126449;28;19917;-87
2023/04/17 05:07:45;;;;;;;;;;;8.00;70.70;;;;;;4113613;28;19921;-87
2023/04/17 05:10:15;;;;;;;;;;;8.00;71.50;;;;;;4110948;28;19919;-87
2023/04/17 05:12:35;;;;;;;;;;;8.10;71.00;;;;;;4115187;28;19910;-87
2023/04/17 05:14:56;;;;;;;;;;;8.20;71.20;;;;;;4113340;28;20447;-88
2023/04/17 05:17:40;;;;;;;;;;;;;;;;;;;;;
2023/04/17 05:20:08;;;;;;;;;;;8.20;71.10;;;;;;4125718;28;19913;-87
2023/04/17 05:22:41;;;;;;;;;;;8.20;71.10;;;;;;4139178;28;19937;-88
2023/04/17 05:24:56;;;;;;;;;;;8.20;71.00;;;;;;4099214;28;20389;-88
2023/04/17 05:27:17;;;;;;;;;;;8.20;70.70;;;;;;4122519;28;19979;-88
2023/04/17 05:29:38;;;;;;;;;;;8.20;70.70;;;;;;4112636;28;19929;-87
2023/04/17 05:31:58;;;;;;;;;;;8.40;70.70;;;;;;4113381;28;19988;-88
2023/04/17 05:34:19;;;;;;;;;;;8.40;70.70;;;;;;4129937;28;20336;-88
2023/04/17 05:36:39;;;;;;;;;;;8.30;70.50;;;;;;4122243;28;19909;-88
2023/04/17 05:39:06;;;;;;;;;;;8.40;70.70;;;;;;4131507;28;19914;-87
2023/04/17 05:41:29;;;;;;;;;;;8.40;70.50;;;;;;4112296;28;20329;-90
2023/04/17 05:44:11;;;;;;;;;;;8.50;70.60;;;;;;4127877;28;19992;-87
2023/04/17 05:46:37;;;;;;;;;;;8.50;70.40;;;;;;4128101;28;20417;-88
2023/04/17 05:49:02;;;;;;;;;;;8.50;70.10;;;;;;4116125;28;19921;-87
2023/04/17 05:51:31;;;;;;;;;;;8.60;69.90;;;;;;4122229;28;19916;-87
2023/04/17 05:53:45;;;;;;;;;;;8.60;70.00;;;;;;4125744;28;19913;-88
2023/04/17 05:55:46;;;;;;;;;;;8.60;70.10;;;;;;4111209;28;19937;-88
2023/04/17 05:58:18;;;;;;;;;;;8.80;70.20;;;;;;4111013;28;19944;-88
2023/04/17 06:00:25;;;;;;;;;;;8.70;70.10;;;;;;4116617;28;19914;-88
2023/04/17 06:02:34;;;;;;;;;;;8.80;70.10;;;;;;4102899;28;19910;-87
2023/04/17 06:04:37;;;;;;;;;;;8.80;69.90;;;;;;4126507;28;19913;-87
2023/04/17 06:06:43;;;;;;;;;;;8.90;70.00;;;;;;4097591;28;19911;-87
2023/04/17 06:09:14;;;;;;;;;;;;;;;;;;;;;
2023/04/17 06:11:47;;;;;;;;;;;8.90;69.50;;;;;;4125711;28;20001;-87
2023/04/17 06:14:32;;;;;;;;;;;9.00;69.50;;;;;;4110106;28;19906;-87
2023/04/17 06:17:14;;;;;;;;;;;9.00;69.10;;;;;;4129946;28;19909;-87
2023/04/17 06:19:54;;;;;;;;;;;9.00;68.30;;;;;;4123959;28;19949;-87
2023/04/17 06:22:49;;;;;;;;;;;;;;;;;;;;;
2023/04/17 06:25:10;;;;;;;;;;;9.10;67.10;;;;;;4122287;28;19914;-88
2023/04/17 06:27:49;;;;;;;;;;;9.10;67.10;;;;;;4113749;28;19910;-87
2023/04/17 06:30:13;;;;;;;;;;;9.20;67.10;;;;;;4113669;28;19914;-89
2023/04/17 06:32:27;;;;;;;;;;;9.20;67.20;;;;;;4116397;28;19910;-87
2023/04/17 06:34:53;;;;;;;;;;;9.30;66.90;;;;;;4112610;28;20183;-87
2023/04/17 06:36:55;;;;;;;;;;;9.30;66.60;;;;;;4127182;28;19913;-87
2023/04/17 06:45:28;;;;;;;;;;;9.30;66.40;;;;;;4124262;28;19913;-87
2023/04/17 06:47:49;;;;;;;;;;;9.40;65.80;;;;;;4125352;28;19913;-87
2023/04/17 06:53:01;;;;;;;;;;;9.50;65.50;;;;;;4127981;28;20517;-88
2023/04/17 06:58:16;;;;;;;;;;;9.70;65.90;;;;;;4127052;28;20378;-87
2023/04/17 07:00:22;;;;;;;;;;;9.60;65.40;;;;;;4093540;28;20272;-87
2023/04/17 07:02:23;;;;;;;;;;;9.70;65.20;;;;;;4120677;28;19913;-86
2023/04/17 07:04:44;;;;;;;;;;;9.80;65.40;;;;;;4124418;28;20348;-87
2023/04/17 07:07:14;;;;;;;;;;;9.80;65.20;;;;;;4122612;28;20508;-87
2023/04/17 07:09:35;;;;;;;;;;;9.90;64.80;;;;;;4122556;28;20273;-88
2023/04/17 07:11:55;;;;;;;;;;;10.00;64.40;;;;;;4126500;28;20404;-87
2023/04/17 07:14:16;;;;;;;;;;;9.90;63.30;;;;;;4122788;28;20355;-87
2023/04/17 07:16:44;;;;;;;;;;;10.00;63.40;;;;;;4124754;28;20374;-88
2023/04/17 07:19:14;;;;;;;;;;;10.00;64.30;;;;;;4110554;28;19910;-87
2023/04/17 07:21:15;;;;;;;;;;;10.10;64.40;;;;;;4108827;28;20366;-86
2023/04/17 07:23:15;;;;;;;;;;;10.10;63.90;;;;;;4155220;23;19924;-87
2023/04/17 07:25:45;;;;;;;;;;;10.10;63.00;;;;;;4109973;28;19956;-87
2023/04/17 07:28:06;;;;;;;;;;;10.20;62.90;;;;;;4109231;28;20001;-87
2023/04/17 07:30:27;;;;;;;;;;;10.20;62.60;;;;;;4110373;28;19997;-88
2023/04/17 07:32:48;;;;;;;;;;;10.20;63.20;;;;;;4122129;28;19936;-87
2023/04/17 07:35:14;;;;;;;;;;;10.20;62.20;;;;;;4112107;28;19933;-87
2023/04/17 07:37:46;;;;;;;;;;;10.20;62.60;;;;;;4114359;28;20567;-87
2023/04/17 07:40:18;;;;;;;;;;;10.30;62.50;;;;;;4108549;28;20412;-87
2023/04/17 07:42:57;;;;;;;;;;;;;;;;;;;;;
2023/04/17 07:44:50;;;;;;;;;;;10.40;63.20;;;;;;4204971;23;19921;-87
2023/04/17 07:47:11;;;;;;;;;;;10.40;62.80;;;;;;4142830;28;19910;-87
2023/04/17 07:49:32;;;;;;;;;;;10.40;62.10;;;;;;4142680;28;20410;-91
2023/04/17 07:51:53;;;;;;;;;;;10.40;62.00;;;;;;4158165;28;20367;-89
2023/04/17 07:54:19;;;;;;;;;;;10.40;61.70;;;;;;4148634;28;19906;-89
2023/04/17 07:56:35;;;;;;;;;;;10.40;61.70;;;;;;4127581;28;19913;-91
2023/04/17 07:58:43;;;;;;;;;;;10.50;61.60;;;;;;4120630;28;19910;-90
2023/04/17 08:01:04;;;;;;;;;;;10.50;62.20;;;;;;4137319;28;20419;-87
2023/04/17 08:03:40;;;;;;;;;;;10.50;62.50;;;;;;4114414;28;20428;-88
2023/04/17 08:06:22;;;;;;;;;;;10.60;62.50;;;;;;4124769;28;20396;-86
2023/04/17 08:08:50;;;;;;;;;;;10.50;62.20;;;;;;4120471;28;20496;-87
2023/04/17 08:11:44;;;;;;;;;;;;;;;;;;;;;
2023/04/17 08:14:16;;;;;;;;;;;;;;;;;;;;;
2023/04/17 08:16:58;;;;;;;;;;;10.70;63.70;;;;;;4140127;28;19960;-87
2023/04/17 08:19:55;;;;;;;;;;;;;;;;;;;;;
2023/04/17 08:25:41;;;;;;;;;;;;;;;;;;;;;
2023/04/17 08:28:02;;;;;;;;;;;10.80;62.40;;;;;;4134640;28;19921;-87
2023/04/17 08:30:51;;;;;;;;;;;10.80;63.20;;;;;;4135639;28;20371;-87
2023/04/17 08:33:31;;;;;;;;;;;10.80;63.40;;;;;;4133690;28;19913;-86
2023/04/17 08:35:55;;;;;;;;;;;10.80;63.70;;;;;;4137040;28;20387;-87
2023/04/17 08:38:28;;;;;;;;;;;10.80;64.10;;;;;;4133897;28;20413;-89
2023/04/17 08:41:02;;;;;;;;;;;10.90;64.30;;;;;;4139778;28;19992;-89
2023/04/17 08:43:25;;;;;;;;;;;10.80;63.90;;;;;;4102037;28;19922;-91
2023/04/17 08:46:02;;;;;;;;;;;11.00;64.30;;;;;;4119771;28;20454;-89
2023/04/17 08:48:34;;;;;;;;;;;10.90;64.00;;;;;;4124094;28;19960;-88
2023/04/17 08:51:18;;;;;;;;;;;10.90;63.50;;;;;;4105399;28;19960;-87
2023/04/17 08:54:03;;;;;;;;;;;10.90;63.30;;;;;;4117644;28;19905;-87
2023/04/17 09:00:01;;;;;;;;;;;;;;;;;;;;;
2023/04/17 09:05:21;;;;;;;;;;;10.70;63.90;;;;;;4142497;28;19919;-87
2023/04/17 09:07:43;;;;;;;;;;;10.80;64.80;;;;;;4121541;28;20048;-87
2023/04/17 09:10:12;;;;;;;;;;;;;;;;;;;;;
2023/04/17 09:12:57;;;;;;;;;;;10.80;63.90;;;;;;4137168;28;19905;-86
2023/04/17 09:15:14;;;;;;;;;;;10.80;63.70;;;;;;4116049;28;19914;-88
2023/04/17 09:17:43;;;;;;;;;;;10.80;63.20;;;;;;4124312;28;19941;-89
2023/04/17 09:20:12;;;;;;;;;;;10.70;62.30;;;;;;4126065;28;20394;-88
2023/04/17 09:25:57;;;;;;;;;;;10.70;62.80;;;;;;4144679;28;20354;-86
2023/04/17 09:28:21;;;;;;;;;;;10.50;63.50;;;;;;4118196;28;20364;-88
2023/04/17 09:30:43;;;;;;;;;;;10.60;64.00;;;;;;4140865;28;19921;-87
2023/04/17 09:33:36;;;;;;;;;;;10.60;64.70;;;;;;4141391;28;19948;-88
2023/04/17 09:36:26;;;;;;;;;;;10.60;65.00;;;;;;4139257;28;20323;-87
2023/04/17 09:39:12;;;;;;;;;;;10.50;66.10;;;;;;4132861;28;20330;-88
2023/04/17 09:41:34;;;;;;;;;;;;;;;;;;;;;
2023/04/17 09:47:11;;;;;;;;;;;10.40;67.20;;;;;;4138942;28;19909;-87
2023/04/17 09:49:52;;;;;;;;;;;;;;;;;;;;;
2023/04/17 09:52:57;;;;;;;;;;;10.30;68.10;;;;;;4136958;28;20540;-86
2023/04/17 09:55:21;;;;;;;;;;;;;;;;;;;;;
2023/04/17 09:58:09;;;;;;;;;;;10.30;65.80;;;;;;4140765;28;19913;-88
2023/04/17 10:04:07;;;;;;;;;;;10.30;65.80;;;;;;4141683;28;19917;-88
2023/04/17 10:09:56;;;;;;;;;;;10.40;65.10;;;;;;4128124;28;19993;-88
2023/04/17 10:12:42;;;;;;;;;;;10.30;64.20;;;;;;4106820;28;19918;-87
2023/04/17 10:15:09;;;;;;;;;;;10.40;64.90;;;;;;4118101;28;19917;-86
2023/04/17 10:17:36;;;;;;;;;;;10.40;65.40;;;;;;4138406;28;19971;-87
2023/04/17 10:20:27;;;;;;;;;;;10.30;65.50;;;;;;4122423;28;19924;-89
2023/04/17 10:23:06;;;;;;;;;;;10.40;65.50;;;;;;4129583;28;19916;-88
2023/04/17 10:25:53;;;;;;;;;;;10.50;66.70;;;;;;4130860;28;20667;-88
2023/04/17 10:31:58;;;;;;;;;;;10.60;64.60;;;;;;4122343;28;20455;-89
2023/04/17 10:34:56;;;;;;;;;;;10.70;64.80;;;;;;4132007;28;19917;-88
2023/04/17 10:37:59;;;;;;;;;;;10.80;64.90;;;;;;4111310;28;20260;-86
2023/04/17 10:42:44;;;;;;;;;;;10.80;60.10;;;;;;4120655;28;19921;-87
2023/04/17 10:48:15;;;;;;;;;;;10.70;58.80;;;;;;4102755;28;19910;-86
2023/04/17 10:56:37;;;;;;;;;;;11.00;57.80;;;;;;4106681;28;19925;-89
2023/04/17 10:59:12;;;;;;;;;;;11.00;56.20;;;;;;4104084;28;19944;-87
2023/04/17 11:01:59;;;;;;;;;;;10.90;56.00;;;;;;4133511;28;19917;-86
2023/04/17 11:04:23;;;;;;;;;;;11.00;53.30;;;;;;4186798;23;19932;-91
2023/04/17 11:09:59;;;;;;;;;;;11.00;52.30;;;;;;4094652;28;19906;-88
2023/04/17 11:12:38;;;;;;;;;;;11.00;52.50;;;;;;4096054;28;19960;-87
2023/04/17 11:15:02;;;;;;;;;;;11.20;52.80;;;;;;4140731;28;19909;-87
2023/04/17 11:20:02;;;;;;;;;;;11.20;50.80;;;;;;4136087;28;19905;-88
2023/04/17 11:22:23;;;;;;;;;;;11.20;50.30;;;;;;4134839;28;19909;-88
2023/04/17 11:27:58;;;;;;;;;;;11.30;50.40;;;;;;4135528;28;19957;-86
2023/04/17 11:30:44;;;;;;;;;;;11.30;50.20;;;;;;4126999;28;19914;-89
2023/04/17 11:39:43;;;;;;;;;;;11.50;50.00;;;;;;2484895;26;19921;-90
2023/04/17 11:42:20;;;;;;;;;;;11.50;49.80;;;;;;4142261;28;19937;-89
2023/04/17 11:44:29;;;;;;;;;;;11.50;50.60;;;;;;4129056;28;20000;-87
2023/04/17 11:49:29;;;;;;;;;;;11.60;50.60;;;;;;4100893;28;20101;-88
2023/04/17 11:52:03;;;;;;;;;;;11.70;49.60;;;;;;4108418;28;19985;-87
2023/04/17 11:54:27;;;;;;;;;;;11.70;49.40;;;;;;4100367;23;20304;-87
2023/04/17 12:00:26;;;;;;;;;;;;;;;;;;;;;
2023/04/17 12:05:56;;;;;;;;;;;11.80;48.90;;;;;;4104481;28;19949;-87
2023/04/17 12:08:54;;;;;;;;;;;;;;;;;;;;;
2023/04/17 12:11:33;;;;;;;;;;;11.90;51.00;;;;;;4109381;28;19921;-91
2023/04/17 12:14:28;;;;;;;;;;;11.80;50.30;;;;;;4085547;28;19968;-87
2023/04/17 12:17:10;;;;;;;;;;;11.80;50.70;;;;;;4080943;28;19915;-87
2023/04/17 12:19:47;;;;;;;;;;;12.00;52.70;;;;;;4099821;28;19918;-90
2023/04/17 12:24:32;;;;;;;;;;;12.10;51.00;;;;;;4117939;28;19914;-87
2023/04/17 12:26:43;;;;;;;;;;;12.20;51.00;;;;;;4090666;29;20722;-87
2023/04/17 12:28:46;;;;;;;;;;;12.20;49.20;;;;;;4072841;29;19915;-92
2023/04/17 12:30:54;;;;;;;;;;;12.20;48.70;;;;;;4092044;28;19921;-88
2023/04/17 12:33:38;;;;;;;;;;;12.30;50.10;;;;;;4091792;28;19981;-87
2023/04/17 12:36:15;;;;;;;;;;;12.30;48.40;;;;;;4058725;29;20006;-87
2023/04/17 12:38:47;;;;;;;;;;;12.30;48.90;;;;;;4081127;28;19910;-86
2023/04/17 12:41:18;;;;;;;;;;;12.30;48.10;;;;;;4093407;28;19910;-86
2023/04/17 12:44:04;;;;;;;;;;;;;;;;;;;;;
2023/04/17 12:49:42;;;;;;;;;;;12.50;48.80;;;;;;4093846;28;19909;-86
2023/04/17 12:52:03;;;;;;;;;;;12.50;49.20;;;;;;4107520;28;19960;-87
2023/04/17 12:54:58;;;;;;;;;;;;;;;;;;;;;
2023/04/17 12:57:56;;;;;;;;;;;12.40;46.50;;;;;;4105600;28;19914;-86
2023/04/17 13:01:01;;;;;;;;;;;12.50;46.80;;;;;;4105642;28;19922;-85
2023/04/17 13:05:20;;;;;;;;;;;12.40;45.10;;;;;;4171390;23;19975;-86
2023/04/17 13:07:41;;;;;;;;;;;12.30;45.80;;;;;;4150667;28;20474;-88
2023/04/17 13:10:37;;;;;;;;;;;12.40;46.40;;;;;;4141367;28;20019;-86
2023/04/17 13:19:36;;;;;;;;;;;12.60;47.40;;;;;;4120414;28;20439;-87
2023/04/17 13:22:05;;;;;;;;;;;12.60;46.60;;;;;;4085248;28;19920;-88
2023/04/17 13:24:40;;;;;;;;;;;12.50;44.70;;;;;;4125443;28;19913;-85
2023/04/17 13:30:10;;;;;;;;;;;12.50;44.60;;;;;;4120272;28;19909;-88
2023/04/17 13:32:48;;;;;;;;;;;12.50;44.50;;;;;;4101708;28;19977;-86
2023/04/17 13:35:07;;;;;;;;;;;12.40;45.90;;;;;;4105708;28;19918;-88
2023/04/17 13:37:13;;;;;;;;;;;12.40;45.90;;;;;;4106594;28;20487;-87
2023/04/17 13:42:16;;;;;;;;;;;12.20;44.20;;;;;;4117907;28;20003;-86
2023/04/17 13:44:33;;;;;;;;;;;12.30;44.60;;;;;;4090412;28;19952;-86
2023/04/17 13:47:06;;;;;;;;;;;12.40;45.20;;;;;;4100695;28;19910;-87
2023/04/17 13:49:55;;;;;;;;;;;;;;;;;;;;;
2023/04/17 13:55:58;;;;;;;;;;;12.30;43.90;;;;;;4120799;28;19929;-86
2023/04/17 13:58:24;;;;;;;;;;;12.30;45.20;;;;;;4123083;28;19910;-86
2023/04/17 14:01:07;;;;;;;;;;;12.30;45.60;;;;;;4122830;28;19910;-87
2023/04/17 14:06:20;;;;;;;;;;;12.20;45.20;;;;;;4109367;28;19918;-87
2023/04/17 14:08:55;;;;;;;;;;;;;;;;;;;;;
2023/04/17 14:11:33;;;;;;;;;;;12.10;45.00;;;;;;4128137;28;19914;-85
2023/04/17 14:13:54;;;;;;;;;;;12.00;45.80;;;;;;4110787;28;19922;-86
2023/04/17 14:19:45;;;;;;;;;;;12.10;46.80;;;;;;4119321;28;19921;-87
2023/04/17 14:22:21;;;;;;;;;;;;;;;;;;;;;
2023/04/17 14:24:45;;;;;;;;;;;12.10;46.50;;;;;;4122319;28;19910;-85
2023/04/17 14:27:05;;;;;;;;;;;12.10;45.40;;;;;;4107455;28;19910;-86
2023/04/17 14:29:26;;;;;;;;;;;12.10;46.70;;;;;;4106464;28;19968;-89
2023/04/17 14:32:05;;;;;;;;;;;12.20;47.60;;;;;;4124284;28;20420;-86
2023/04/17 14:34:33;;;;;;;;;;;12.10;46.40;;;;;;4126319;28;20016;-87
2023/04/17 14:37:04;;;;;;;;;;;12.20;46.40;;;;;;4105895;28;20030;-86
2023/04/17 14:39:33;;;;;;;;;;;12.10;47.00;;;;;;4113698;28;19921;-86
2023/04/17 14:44:31;;;;;;;;;;;12.00;46.80;;;;;;4116920;28;19921;-88
2023/04/17 14:49:40;;;;;;;;;;;12.00;45.70;;;;;;4105209;28;19924;-88
2023/04/17 14:52:36;;;;;;;;;;;11.90;44.80;;;;;;4114587;28;19920;-87
2023/04/17 14:55:18;;;;;;;;;;;;;;;;;;;;;
2023/04/17 14:58:08;;;;;;;;;;;11.90;46.00;;;;;;4119339;28;19909;-85
2023/04/17 15:00:41;;;;;;;;;;;12.00;45.50;;;;;;4127584;28;19947;-86
2023/04/17 15:06:11;;;;;;;;;;;11.80;42.70;;;;;;4111412;28;19925;-85
2023/04/17 15:08:35;;;;;;;;;;;11.70;41.40;;;;;;4094069;28;19969;-87
2023/04/17 15:11:05;;;;;;;;;;;11.80;43.40;;;;;;4138312;28;19914;-89
2023/04/17 15:13:52;;;;;;;;;;;11.80;43.20;;;;;;4123340;28;19917;-87
2023/04/17 15:16:23;;;;;;;;;;;11.70;43.20;;;;;;4123541;28;20043;-89
2023/04/17 15:18:51;;;;;;;;;;;11.70;42.00;;;;;;4127917;28;20382;-86
2023/04/17 15:23:59;;;;;;;;;;;11.60;41.90;;;;;;4114311;28;19981;-85
2023/04/17 15:26:29;;;;;;;;;;;11.70;44.30;;;;;;4126045;28;19921;-86
2023/04/17 15:29:02;;;;;;;;;;;11.70;45.20;;;;;;4112452;28;19910;-86
2023/04/17 15:31:33;;;;;;;;;;;11.70;44.20;;;;;;4111495;28;20316;-88
2023/04/17 15:33:57;;;;;;;;;;;11.80;44.90;;;;;;4110897;28;19913;-86
2023/04/17 15:36:26;;;;;;;;;;;11.80;45.60;;;;;;4110534;28;19917;-87
2023/04/17 15:39:12;;;;;;;;;;;;;;;;;;;;;
2023/04/17 15:41:53;;;;;;;;;;;11.80;46.20;;;;;;4124218;28;19913;-86
2023/04/17 15:44:04;;;;;;;;;;;11.80;46.40;;;;;;4094884;28;19996;-85
2023/04/17 15:46:25;;;;;;;;;;;11.80;45.80;;;;;;4092236;28;19910;-86
2023/04/17 15:48:26;;;;;;;;;;;11.80;45.90;;;;;;4113813;28;19910;-86
2023/04/17 15:50:53;;;;;;;;;;;11.80;45.80;;;;;;4106790;28;19922;-87
2023/04/17 15:56:20;;;;;;;;;;;11.80;45.80;;;;;;4127430;28;19917;-86
2023/04/17 16:04:42;;;;;;;;;;;11.70;46.10;;;;;;4116273;28;20051;-86
2023/04/17 16:07:29;;;;;;;;;;;;;;;;;;;;;
2023/04/17 16:10:33;;;;;;;;;;;;;;;;;;;;;
2023/04/17 16:13:17;;;;;;;;;;;;;;;;;;;;;
2023/04/17 16:15:56;;;;;;;;;;;11.70;46.70;;;;;;4081683;29;19911;-86
2023/04/17 16:30:56;;;;;;;;;;;;;;;;;;;;;
2023/04/17 16:40:03;;;;;;;;;;;11.70;48.10;;;;;;4022098;29;20025;-86
2023/04/17 16:48:27;;;;;;;;;;;11.60;48.60;;;;;;4127593;28;19965;-86
2023/04/17 16:51:10;;;;;;;;;;;11.60;48.30;;;;;;4111086;28;19953;-86
2023/04/17 16:54:13;;;;;;;;;;;;;;;;;;;;;
2023/04/17 16:59:53;;;;;;;;;;;11.50;48.00;;;;;;4088250;28;19917;-85
2023/04/17 17:02:30;;;;;;;;;;;11.60;48.80;;;;;;4121169;28;19913;-85
2023/04/17 17:04:50;;;;;;;;;;;;;;;;;;;;;
2023/04/17 17:07:33;;;;;;;;;;;;;;;;;;;;;
2023/04/17 17:10:29;;;;;;;;;;;11.50;47.90;;;;;;4094090;28;19906;-86
2023/04/17 17:15:07;;;;;;;;;;;11.40;48.00;;;;;;4125316;23;19926;-85
2023/04/17 17:17:32;;;;;;;;;;;11.40;48.30;;;;;;4107636;28;19922;-85
2023/04/17 17:20:05;;;;;;;;;;;11.40;48.90;;;;;;4126774;28;19929;-86
2023/04/17 17:22:31;;;;;;;;;;;11.40;48.80;;;;;;4120593;28;19913;-87
2023/04/17 17:28:08;;;;;;;;;;;11.30;49.40;;;;;;4120718;28;19914;-86
2023/04/17 17:30:46;;;;;;;;;;;11.30;49.40;;;;;;4126785;28;19949;-85